x

Galveston,tx - 22 Nm East Of Galveston, Tx (42035) Wave Buoy

6:50pm - Mon 8th Feb 2016 All times are CST. -6 hours from GMT.

  • Sig Wave height 3.3ft
  • Swell Direction
  • Peak Period 4s
  • Average Period 4s
  • Wind
    25mph, 29mph gusts
  • Sea Temp 58°f
  • Air Temp 58°f
  • Sea Pressure 1022.8mb
  • Galveston,tx -  22 Nm East Of Galveston, Tx
  • Galveston,tx -  22 Nm East Of Galveston, Tx

More Historic Weather Station data

Upgrade to MSW Pro to gain access to the past 30 days of data for over 8000 Wavebouys and Weather Stations around the globe.

Join Pro

Comparision Forecast

View Surf forecast
   
Mon 02/08 6:50pm 3.5ft 4s 4s 25 29 mph 1022.8mb 58f 58f
5:50pm 3ft 4s 4s 25 31 mph 1022.1mb 59f 59f
4:50pm 3ft 4s 4s 20 27 mph 1021.9mb 59f 60f
3:50pm 3ft 4s 4s 22 27 mph 1021.9mb 59f 59f
2:50pm 3ft 4s 3s 25 31 mph 1022.5mb 59f 59f
1:50pm 2.5ft 4s 4s 20 25 mph 1023.5mb 58f 57f
12:50pm 2.5ft 4s 4s 22 27 mph 1024.4mb 58f 56f
11:50am 3.5ft 4s 4s 20 22 mph 1026.3mb 58f 55f
10:50am 4ft 4s 4s 20 25 mph 1026.3mb 58f 55f
9:50am 4ft 4s 4s 27 31 mph 1026.2mb 58f 54f
8:50am 3.5ft 4s 4s 27 31 mph 1025.6mb 58f 53f
7:50am 2.5ft 3s 3s 25 29 mph 1024.5mb 58f 55f
6:50am 1.6ft 3s 3s 18 20 mph 1024.3mb 58f 56f
5:50am 1.6ft 3s 3s 20 22 mph 1023mb 59f 56f
4:50am 1.3ft 4s 3s 18 20 mph 1022mb 59f 57f
3:50am 1ft 4s 4s 13 16 mph 1021.6mb 59f 58f
2:50am 1.3ft 4s 4s 11
mph
1021.2mb 59f 58f
1:50am 1.3ft 4s 4s 9 11 mph 1021.6mb 59f 59f
12:50am 1.3ft 4s 4s 9 11 mph 1021.7mb 59f 59f
Sun 02/07 11:50pm 1.3ft 3s 4s 9 11 mph 1021.4mb 59f 59f
10:50pm 1ft 3s 4s 9 11 mph 1021.7mb 60f 59f
9:50pm 1.3ft 7s 4s 9 11 mph 1022mb 60f 59f
8:50pm 1ft 7s 4s 7 9 mph 1021.9mb 60f 59f
7:50pm 1.3ft 7s 4s 7
mph
1022.1mb 60f 59f
6:50pm 1.3ft 3s 4s 7 9 mph 1022mb 60f 59f
5:50pm 1.3ft 3s 3s 9 11 mph 1021.8mb 60f 58f
4:50pm 1.3ft 3s 3s 13 16 mph 1021.6mb 60f 58f
3:50pm 1ft 6s 4s 13 16 mph 1021.5mb 61f 57f
2:50pm 1ft 6s 5s 11 13 mph 1022.7mb 61f 56f
1:50pm 1ft 4s 5s 9 11 mph 1024.1mb 60f 55f
12:50pm 1ft 7s 4s 7 11 mph 1024.9mb 60f 55f
11:50am 1ft 7s 5s 7 9 mph 1025.6mb 60f 54f
10:50am 1ft 6s 5s 9 11 mph 1025.9mb 59f 53f
9:50am 1ft 7s 4s 7 9 mph 1026.5mb 60f 53f
8:50am 1ft 5s 4s 4 7 mph 1026.7mb 59f 53f
7:50am 1ft 7s 4s 4 9 mph 1026.4mb 59f 51f
6:50am 1.3ft 5s 4s 7 9 mph 1025.9mb 59f 51f
5:50am 1.3ft 5s 4s 7 9 mph 1026.2mb 58f 51f
4:50am 1.6ft 4s 4s 9 11 mph 1026.2mb 58f 51f
3:50am 1.6ft 6s 4s 7 9 mph 1026.9mb 58f 51f
2:50am 1.6ft 5s 4s 9 11 mph 1027.4mb 58f 51f
1:50am 1.6ft 4s 4s 7 9 mph 1028mb 58f 52f
12:50am 1.6ft 5s 4s 9 11 mph 1027.8mb 58f 52f
Sat 02/06 11:50pm 2ft 5s 4s 9 13 mph 1028.2mb 58f 52f
10:50pm 2ft 5s 4s 11 16 mph 1028.3mb 58f 52f
9:50pm 2.5ft 4s 4s 11 13 mph 1028.2mb 58f 53f
8:50pm 2.5ft 4s 4s 11 13 mph 1027.9mb 58f 53f
7:50pm 2.5ft 3s 4s 16 18 mph 1027.4mb 58f 53f
6:50pm 2.5ft 3s 4s 18 22 mph 1026.5mb 58f 53f
5:50pm 2.5ft 4s 3s 20 22 mph 1025.7mb 58f 53f
4:50pm 2.5ft 4s 4s 22 25 mph 1024.6mb 59f 57f
3:50pm 2.5ft 4s 4s 22 25 mph 1024.1mb 58f 56f
2:50pm 2ft 4s 4s 20 22 mph 1024.1mb 59f 55f
1:50pm 1.6ft 5s 4s 16 20 mph 1024.1mb 59f 55f
12:50pm 1.6ft 6s 4s 7 11 mph 1024.9mb 59f 54f
11:50am 2ft 6s 4s 7 11 mph 1025.8mb 59f 53f
10:50am 2ft 3s 4s  -  2 mph 1026.8mb 58f 53f
9:50am 2ft 5s 4s 4 7 mph 1027mb 58f 52f
8:50am 2ft 6s 4s 9 11 mph 1026.5mb 58f 51f
7:50am 2ft 4s 4s 22 27 mph 1026.3mb 57f 53f
6:50am 2.5ft 5s 4s 7 9 mph 1025.6mb 57f 57f
5:50am 2.5ft 5s 4s 11 13 mph 1025.2mb 58f 57f
4:50am 2.5ft 5s 4s 9 11 mph 1025.5mb 58f 56f
3:50am 2.5ft 6s 4s 7 11 mph 1025.8mb 58f 56f
2:50am 2.5ft 5s 4s 9 11 mph 1026.3mb 58f 56f
1:50am 3ft 5s 4s 11 13 mph 1026.8mb 58f 56f
12:50am 2.5ft 5s 4s 13 18 mph 1026.9mb 58f 55f
Fri 02/05 11:50pm 3ft 6s 4s 16 18 mph 1027.5mb 58f 55f
10:50pm 3ft 6s 4s 18 20 mph 1027.6mb 58f 55f
9:50pm 3ft 6s 4s 18 20 mph 1027.9mb 58f 54f
8:50pm 2.5ft 6s 4s 16 18 mph 1028.4mb 58f 53f
7:50pm 2.5ft 4s 4s 13 18 mph 1028.5mb 58f 53f
6:50pm 2.5ft 5s 4s 13 16 mph 1028.7mb 58f 53f
5:50pm 2.5ft 4s 4s 11 13 mph 1028.5mb 59f 53f
4:50pm 2ft 4s 4s 11 16 mph 1028.3mb 59f 53f
3:50pm 2ft 4s 4s 11 16 mph 1028.4mb 59f 53f
2:50pm 2ft 4s 3s 13 16 mph 1029.1mb 59f 52f
1:50pm 2ft 4s 4s 11 13 mph 1029.6mb 59f 53f
12:50pm 2ft 4s 3s 11 16 mph 1031mb 59f 53f
11:50am 2ft 3s 3s 11 16 mph 1032.4mb 59f 53f
10:50am 2ft 4s 3s 13 16 mph 1032.5mb 58f 53f
9:50am 2ft 4s 3s 13 18 mph 1032.4mb 58f 53f
8:50am 1.6ft 3s 3s 13 18 mph 1032.1mb 58f 53f
7:50am 1.6ft 4s 3s 13 18 mph 1031.7mb 58f 53f
6:50am 1.6ft 4s 3s 13 18 mph 1031.2mb 58f 52f
5:50am 1.6ft 4s 4s 11 13 mph 1030.9mb 58f 52f
4:50am 1.6ft 4s 4s 11 13 mph 1030.8mb 58f 52f
3:50am 2ft 5s 4s 9 11 mph 1031.4mb 58f 53f
2:50am 2ft 5s 4s 11 16 mph 1031.6mb 58f 53f